Time;durP1;ratioP1;P1;durP2;ratioP2;P2;SDS_P1;SDS_P2;PMS_P1;PMS_P2;Temp;Humidity;BMP_temperature;BMP_pressure;BME280_temperature;BME280_humidity;BME280_pressure;Samples;Min_cycle;Max_cycle;Signal;HPM_P1;HPM_P2
2023/01/26 00:01:19;;;;;;;;;17.80;14.40;;;;;6.47;46.99;99987.94;5038981;28;8870;-80
2023/01/26 00:03:49;;;;;;;;;15.60;13.60;;;;;6.63;46.60;99991.72;5088470;28;8884;-80
2023/01/26 00:06:19;;;;;;;;;12.40;10.40;;;;;6.42;47.02;99986.94;5093162;28;8860;-77
2023/01/26 00:08:51;;;;;;;;;12.00;12.00;;;;;6.63;46.71;99996.91;5041574;28;8874;-81
2023/01/26 00:11:23;;;;;;;;;17.00;13.80;;;;;6.51;47.02;99984.56;5075463;28;8832;-79
2023/01/26 00:13:52;;;;;;;;;13.00;12.20;;;;;6.64;46.57;99984.00;5091716;28;8851;-79
2023/01/26 00:16:21;;;;;;;;;14.80;12.40;;;;;6.77;46.07;99982.56;5108336;28;8864;-78
2023/01/26 00:18:50;;;;;;;;;18.00;15.80;;;;;6.84;45.73;99973.19;5074427;28;9565;-78
2023/01/26 00:21:21;;;;;;;;;15.80;12.20;;;;;6.68;46.49;99978.91;5091395;28;8836;-79
2023/01/26 00:23:52;;;;;;;;;14.00;13.20;;;;;6.85;45.85;99972.34;5090989;28;8874;-78
2023/01/26 00:26:25;;;;;;;;;19.00;15.20;;;;;6.91;45.96;99971.63;5074464;28;8844;-78
2023/01/26 00:28:54;;;;;;;;;15.60;14.60;;;;;6.96;45.63;99965.69;5107823;28;8860;-80
2023/01/26 00:31:26;;;;;;;;;15.20;11.00;;;;;6.89;45.79;99966.38;5092281;28;8957;-80
2023/01/26 00:33:56;;;;;;;;;17.20;16.00;;;;;6.80;46.12;99967.06;5091933;28;9008;-80
2023/01/26 00:36:26;;;;;;;;;16.00;16.00;;;;;6.87;45.84;99967.22;5109338;28;8860;-79
2023/01/26 00:38:56;;;;;;;;;14.00;12.40;;;;;6.94;45.94;99961.31;5092155;28;8853;-78
2023/01/26 00:44:11;;;;;;;;;18.40;17.20;;;;;6.70;46.29;99959.94;5129370;27;8870;-79
2023/01/26 00:46:40;;;;;;;;;20.20;19.00;;;;;6.71;46.20;99953.94;5130918;27;8822;-80
2023/01/26 00:49:09;;;;;;;;;20.60;15.40;;;;;6.75;46.39;99953.16;5129341;27;8838;-79
2023/01/26 00:51:38;;;;;;;;;16.40;14.60;;;;;6.94;45.39;99957.00;5130743;27;8961;-79
2023/01/26 00:54:08;;;;;;;;;17.80;14.00;;;;;6.94;45.81;99943.19;5129125;27;8865;-77
2023/01/26 00:56:37;;;;;;;;;12.00;9.20;;;;;7.06;45.07;99950.31;5120860;27;8856;-78
2023/01/26 00:59:06;;;;;;;;;20.00;17.40;;;;;6.96;45.20;99944.94;5108631;28;8868;-78
2023/01/26 01:01:35;;;;;;;;;17.60;16.60;;;;;6.88;45.49;99937.84;5091467;28;8871;-78
2023/01/26 01:04:04;;;;;;;;;17.00;17.00;;;;;6.77;45.99;99937.63;5091384;28;8833;-79
2023/01/26 01:06:34;;;;;;;;;21.00;16.20;;;;;6.95;45.40;99939.72;5108276;28;8864;-78
2023/01/26 01:09:02;;;;;;;;;16.80;14.60;;;;;6.97;45.79;99933.72;5091373;28;8857;-78
2023/01/26 01:11:32;;;;;;;;;16.60;13.20;;;;;7.01;45.72;99935.53;5113431;27;8826;-81
2023/01/26 01:14:01;;;;;;;;;13.80;11.60;;;;;7.17;44.91;99925.47;5089530;28;8840;-80
2023/01/26 01:16:30;;;;;;;;;14.00;12.80;;;;;7.02;45.00;99913.94;5089766;28;9574;-80
2023/01/26 01:18:59;;;;;;;;;17.00;14.20;;;;;6.77;46.44;99927.28;5023929;28;8829;-77
2023/01/26 01:21:28;;;;;;;;;19.00;15.80;;;;;6.67;46.32;99913.22;5073215;28;8880;-77
2023/01/26 01:23:56;;;;;;;;;14.60;14.40;;;;;6.82;46.33;99913.56;5073282;28;8848;-79
2023/01/26 01:26:27;;;;;;;;;16.40;14.60;;;;;6.87;46.38;99916.22;5103617;28;8924;-78
2023/01/26 01:28:57;;;;;;;;;18.80;17.60;;;;;6.75;46.57;99910.81;5086701;28;8855;-78
2023/01/26 01:31:28;;;;;;;;;14.80;14.80;;;;;6.77;46.64;99922.94;5087030;28;8839;-80
2023/01/26 01:33:57;;;;;;;;;16.80;16.80;;;;;6.76;46.55;99897.84;5074730;28;8859;-79
2023/01/26 01:36:28;;;;;;;;;18.20;17.80;;;;;6.77;46.50;99907.41;5087947;28;8839;-78
2023/01/26 01:38:56;;;;;;;;;14.20;14.20;;;;;6.72;46.57;99898.66;5086680;28;8835;-79
2023/01/26 01:41:25;;;;;;;;;14.60;13.40;;;;;6.68;46.28;99896.84;5086361;28;8820;-78
2023/01/26 01:44:14;;;;;;;;;18.00;16.20;;;;;6.67;46.57;99894.22;5068388;28;8859;-79
2023/01/26 01:46:47;;;;;;;;;17.20;13.00;;;;;6.43;47.53;99898.03;5107877;28;8833;-78
2023/01/26 01:49:20;;;;;;;;;12.00;12.00;;;;;6.51;47.30;99893.91;5057468;28;8875;-79
2023/01/26 01:51:54;;;;;;;;;17.40;15.40;;;;;6.52;47.21;99898.25;5108170;28;8837;-79
2023/01/26 01:54:28;;;;;;;;;15.00;15.00;;;;;6.21;48.12;99899.28;5090761;28;8837;-79
2023/01/26 01:57:04;;;;;;;;;16.40;14.20;;;;;6.30;47.57;99888.25;5107442;28;8873;-79
2023/01/26 01:59:35;;;;;;;;;18.00;13.60;;;;;6.44;47.68;99889.41;5062681;27;8900;-79
2023/01/26 02:02:04;;;;;;;;;5.40;4.00;;;;;6.46;47.50;99884.28;5129912;27;8859;-78
2023/01/26 02:04:32;;;;;;;;;18.80;15.00;;;;;6.40;47.41;99878.09;5128152;27;8843;-77
2023/01/26 02:07:05;;;;;;;;;13.80;12.80;;;;;6.31;47.71;99866.69;5108345;27;8917;-78
2023/01/26 02:12:29;;;;;;;;;17.80;15.40;;;;;6.23;48.28;99858.75;5128443;27;9788;-79
2023/01/26 02:15:01;;;;;;;;;17.60;16.00;;;;;6.40;47.98;99857.38;5126668;27;8829;-80
2023/01/26 02:17:31;;;;;;;;;18.40;16.40;;;;;6.24;48.20;99857.91;5107503;28;8857;-80
2023/01/26 02:20:04;;;;;;;;;11.60;9.80;;;;;6.01;48.43;99844.44;5057005;28;8841;-79
2023/01/26 02:22:45;;;;;;;;;18.20;13.40;;;;;5.82;49.24;99844.00;5107665;28;8859;-79
2023/01/26 02:25:25;;;;;;;;;14.80;14.80;;;;;5.75;49.13;99846.41;5107436;28;8852;-78
2023/01/26 02:27:56;;;;;;;;;19.20;17.60;;;;;5.70;49.33;99843.69;5123913;28;8860;-78
2023/01/26 02:30:27;;;;;;;;;15.40;13.60;;;;;5.75;48.93;99841.25;5107037;28;8833;-78
2023/01/26 02:32:56;;;;;;;;;9.00;7.00;;;;;5.87;48.58;99836.34;5090292;28;8913;-78
2023/01/26 02:35:25;;;;;;;;;14.00;13.80;;;;;5.85;48.42;99838.88;5092893;28;8837;-78
2023/01/26 02:37:54;;;;;;;;;17.80;16.00;;;;;5.71;48.55;99826.47;5090036;28;8861;-79
2023/01/26 02:40:29;;;;;;;;;13.80;13.80;;;;;5.43;49.13;99831.84;5106969;28;8857;-77
2023/01/26 02:43:01;;;;;;;;;14.80;13.60;;;;;5.49;48.67;99823.38;5105394;28;8937;-78
2023/01/26 02:45:31;;;;;;;;;16.20;14.00;;;;;5.45;48.70;99827.59;5105526;28;8825;-79
2023/01/26 02:48:05;;;;;;;;;14.20;14.20;;;;;5.69;47.88;99826.44;5088483;28;8937;-79
2023/01/26 02:50:35;;;;;;;;;18.80;15.20;;;;;5.75;47.97;99829.16;5089206;28;8871;-79
2023/01/26 02:53:04;;;;;;;;;18.20;12.40;;;;;5.61;48.13;99827.94;5105742;28;8829;-78
2023/01/26 02:55:31;;;;;;;;;13.80;12.20;;;;;5.85;47.58;99820.75;5113732;27;8859;-79
2023/01/26 02:58:04;;;;;;;;;18.00;14.00;;;;;5.86;47.60;99811.31;5130990;27;8827;-79
2023/01/26 03:00:36;;;;;;;;;13.00;13.00;;;;;5.94;47.31;99814.94;5113811;27;8827;-80
2023/01/26 03:03:12;;;;;;;;;13.80;11.40;;;;;6.27;46.66;99803.59;5113492;27;8923;-78
2023/01/26 03:05:41;;;;;;;;;13.60;13.00;;;;;6.11;46.41;99804.97;5130263;27;8985;-80
2023/01/26 03:08:10;;;;;;;;;14.00;14.00;;;;;6.35;45.92;99799.47;5112682;27;8843;-78
2023/01/26 03:10:39;;;;;;;;;10.80;9.00;;;;;6.19;46.58;99803.44;5095959;27;8870;-79
2023/01/26 03:13:09;;;;;;;;;14.60;12.20;;;;;6.36;45.97;99796.00;5112845;27;8838;-79
2023/01/26 03:15:46;;;;;;;;;12.80;11.80;;;;;6.29;45.97;99796.72;5129785;27;8847;-78
2023/01/26 03:29:28;;;;;;;;;15.80;14.40;;;;;5.95;46.84;99775.28;5131606;27;8838;-78
2023/01/26 03:32:00;;;;;;;;;19.20;13.20;;;;;5.96;46.73;99773.59;5130983;27;8888;-80
2023/01/26 03:34:29;;;;;;;;;18.40;14.60;;;;;5.83;46.90;99768.09;5131487;27;8884;-80
2023/01/26 03:36:58;;;;;;;;;14.60;9.60;;;;;5.92;46.97;99769.16;5127522;27;8817;-79
2023/01/26 03:56:24;;;;;;;;;15.60;13.40;;;;;5.85;46.89;99750.91;5110115;28;8833;-79
2023/01/26 03:59:07;;;;;;;;;16.60;15.40;;;;;5.86;47.00;99750.06;5093766;27;8868;-79
2023/01/26 04:01:40;;;;;;;;;14.00;12.00;;;;;6.02;46.27;99748.69;5093228;28;8865;-79
2023/01/26 04:09:48;;;;;;;;;10.40;10.40;;;;;5.91;46.18;99734.63;5093599;28;8865;-78
2023/01/26 04:12:17;;;;;;;;;13.60;10.80;;;;;5.70;47.04;99741.94;5092885;28;8837;-78
2023/01/26 04:23:19;;;;;;;;;17.00;14.00;;;;;5.66;46.66;99731.50;5130655;27;8868;-78
2023/01/26 04:25:50;;;;;;;;;13.40;12.40;;;;;5.78;46.70;99727.44;5130577;27;8918;-79
2023/01/26 04:28:20;;;;;;;;;13.20;10.20;;;;;5.63;46.77;99726.28;5130363;27;8943;-80
2023/01/26 04:30:49;;;;;;;;;16.80;13.00;;;;;5.11;48.08;99734.53;5061950;27;8854;-79
2023/01/26 04:33:19;;;;;;;;;15.40;12.20;;;;;5.18;47.84;99729.56;5076920;27;8934;-78
2023/01/26 04:35:48;;;;;;;;;15.20;14.00;;;;;5.24;47.83;99740.03;5109389;28;8849;-78
2023/01/26 04:38:17;;;;;;;;;17.00;14.60;;;;;5.19;47.73;99736.44;5058848;28;8845;-80
2023/01/26 04:40:53;;;;;;;;;12.20;10.20;;;;;5.39;47.53;99731.75;5109135;28;8872;-79
2023/01/26 04:43:22;;;;;;;;;15.40;12.60;;;;;5.35;47.37;99729.06;5092413;28;8848;-79
2023/01/26 04:45:58;;;;;;;;;13.60;10.40;;;;;5.36;47.58;99733.41;5109333;28;8860;-79
2023/01/26 04:48:31;;;;;;;;;17.00;13.40;;;;;5.53;46.96;99731.22;5094217;27;9647;-80
2023/01/26 04:51:01;;;;;;;;;17.20;14.80;;;;;5.50;46.95;99734.59;5130209;27;8926;-79
2023/01/26 04:53:32;;;;;;;;;8.80;8.80;;;;;5.30;47.32;99728.09;5112824;27;8927;-78
2023/01/26 04:56:01;;;;;;;;;12.20;11.00;;;;;5.38;47.42;99727.41;5129138;27;8938;-78
2023/01/26 04:58:32;;;;;;;;;15.40;11.40;;;;;5.44;47.28;99726.69;5107769;28;8868;-78
2023/01/26 05:01:02;;;;;;;;;15.60;14.00;;;;;5.44;47.11;99714.66;5091632;28;10013;-79
2023/01/26 05:03:32;;;;;;;;;11.00;11.00;;;;;5.42;47.50;99718.88;5108684;28;9656;-78
2023/01/26 05:06:01;;;;;;;;;12.60;11.80;;;;;5.58;46.94;99724.44;5110536;27;9646;-79
2023/01/26 05:08:30;;;;;;;;;11.80;11.20;;;;;5.22;47.69;99723.59;5111982;27;8837;-78
2023/01/26 05:11:00;;;;;;;;;13.20;11.40;;;;;5.30;47.69;99726.38;5111451;27;8950;-79
2023/01/26 05:13:47;;;;;;;;;15.40;13.60;;;;;5.41;47.10;99716.28;5132492;27;8844;-79
2023/01/26 05:16:34;;;;;;;;;14.80;14.80;;;;;5.28;47.54;99705.66;5151045;27;8835;-78
2023/01/26 05:19:09;;;;;;;;;7.00;7.00;;;;;5.39;47.36;99705.03;5132247;27;8843;-77
2023/01/26 05:21:46;;;;;;;;;11.00;11.00;;;;;5.40;47.39;99702.47;5131973;27;8950;-77
2023/01/26 05:24:15;;;;;;;;;10.00;9.00;;;;;5.24;47.81;99705.56;5080531;27;8839;-79
2023/01/26 05:27:21;;;;;;;;;12.40;12.40;;;;;5.27;47.94;99692.69;5150555;27;8835;-79
2023/01/26 05:29:54;;;;;;;;;14.80;11.00;;;;;5.32;47.71;99700.56;5115729;27;8847;-79
2023/01/26 05:32:23;;;;;;;;;12.60;12.40;;;;;5.59;47.15;99705.47;5132475;27;8827;-79
2023/01/26 05:34:53;;;;;;;;;11.80;11.80;;;;;5.24;47.93;99700.38;5150637;27;8839;-79
2023/01/26 05:37:24;;;;;;;;;10.00;10.00;;;;;5.50;47.44;99695.81;5132028;27;8962;-78
2023/01/26 05:39:53;;;;;;;;;13.40;13.00;;;;;5.27;47.78;99688.41;5131583;27;8863;-78
2023/01/26 05:42:22;;;;;;;;;17.40;14.00;;;;;5.06;48.46;99699.09;5115329;27;8850;-79
2023/01/26 05:45:19;;;;;;;;;20.40;16.80;;;;;5.21;48.32;99695.13;5131854;27;8827;-80
2023/01/26 05:47:49;;;;;;;;;13.60;11.40;;;;;5.10;48.46;99704.34;5114666;27;8851;-81
2023/01/26 05:50:21;;;;;;;;;14.20;12.60;;;;;5.26;48.50;99691.81;5114328;27;8823;-80
2023/01/26 05:53:09;;;;;;;;;17.40;17.20;;;;;5.27;48.37;99700.44;5131815;27;8843;-80
2023/01/26 05:55:39;;;;;;;;;16.00;13.00;;;;;5.59;47.56;99710.63;5115426;27;8851;-79
2023/01/26 05:58:08;;;;;;;;;17.20;12.40;;;;;5.62;47.51;99700.38;5131319;27;8843;-79
2023/01/26 06:00:37;;;;;;;;;14.20;13.20;;;;;5.57;47.58;99707.16;5089020;28;8850;-80
2023/01/26 06:03:10;;;;;;;;;11.20;11.20;;;;;5.54;47.68;99713.13;5057683;28;9620;-80
2023/01/26 06:05:41;;;;;;;;;12.80;12.60;;;;;5.61;47.85;99722.78;5072320;28;8846;-80
2023/01/26 06:08:22;;;;;;;;;11.00;9.60;;;;;5.85;47.33;99719.84;5088955;28;8842;-78
2023/01/26 06:11:13;;;;;;;;;13.80;13.20;;;;;5.93;46.91;99707.06;5105380;28;8830;-79
2023/01/26 06:14:00;;;;;;;;;14.80;12.20;;;;;5.84;47.45;99706.84;5073768;28;9603;-79
2023/01/26 06:16:30;;;;;;;;;13.80;13.40;;;;;5.90;47.03;99703.53;5051919;28;8849;-79
2023/01/26 06:19:00;;;;;;;;;14.60;13.40;;;;;5.89;47.24;99707.84;5051564;28;9006;-78
2023/01/26 06:21:30;;;;;;;;;17.40;16.80;;;;;5.81;47.35;99702.50;5052145;28;8879;-80
2023/01/26 06:24:00;;;;;;;;;14.00;12.60;;;;;5.91;46.82;99703.56;5068573;28;8865;-80
2023/01/26 06:26:29;;;;;;;;;13.80;13.80;;;;;5.97;46.81;99692.50;5052428;28;9678;-79
2023/01/26 06:28:59;;;;;;;;;18.20;14.40;;;;;6.02;46.76;99688.28;5086094;28;8861;-80
2023/01/26 06:31:31;;;;;;;;;14.60;13.60;;;;;6.13;46.34;99697.16;5085195;27;8956;-82
2023/01/26 06:34:01;;;;;;;;;21.40;18.20;;;;;6.01;46.92;99694.31;5110620;27;8845;-79
2023/01/26 06:36:32;;;;;;;;;22.60;17.00;;;;;6.01;47.32;99697.78;5110684;27;8864;-78
2023/01/26 06:39:01;;;;;;;;;25.80;14.60;;;;;5.97;47.31;99703.75;5116105;27;8847;-80
2023/01/26 06:41:31;;;;;;;;;18.00;17.20;;;;;6.11;46.82;99697.97;5114256;27;8858;-79
2023/01/26 06:44:01;;;;;;;;;25.80;20.40;;;;;5.94;47.22;99711.41;5131085;27;8944;-79
2023/01/26 06:46:30;;;;;;;;;18.60;18.60;;;;;5.92;47.42;99704.47;5131162;27;8824;-80
2023/01/26 06:49:01;;;;;;;;;21.20;17.80;;;;;5.84;47.22;99699.09;5131112;27;8855;-80
2023/01/26 06:51:52;;;;;;;;;22.80;18.00;;;;;6.05;47.48;99696.13;5114208;27;8855;-79
2023/01/26 06:54:22;;;;;;;;;22.20;18.00;;;;;5.91;47.46;99695.81;5113531;27;8843;-81
2023/01/26 06:57:14;;;;;;;;;21.00;17.80;;;;;6.22;46.78;99699.06;5064653;28;8869;-80
2023/01/26 06:59:56;;;;;;;;;18.40;14.80;;;;;6.02;47.63;99709.00;5064776;28;8974;-79
2023/01/26 07:02:33;;;;;;;;;19.00;19.00;;;;;5.95;47.85;99715.75;5064829;28;8850;-80
2023/01/26 07:05:02;;;;;;;;;20.40;19.00;;;;;6.02;47.66;99711.59;5064774;28;8876;-79
2023/01/26 07:07:33;;;;;;;;;19.20;17.20;;;;;6.10;47.01;99715.19;5064611;28;9002;-80
2023/01/26 07:10:01;;;;;;;;;27.20;24.00;;;;;5.85;47.71;99717.25;5064831;28;8843;-81
2023/01/26 07:12:38;;;;;;;;;21.40;18.00;;;;;5.85;47.93;99706.91;5064634;28;8853;-79
2023/01/26 07:15:08;;;;;;;;;25.60;21.60;;;;;5.86;47.95;99706.06;5048210;28;8878;-78
2023/01/26 07:17:37;;;;;;;;;22.20;19.00;;;;;6.12;47.29;99699.69;5014776;28;8842;-78
2023/01/26 07:20:07;;;;;;;;;17.60;17.20;;;;;6.16;47.41;99706.69;5048181;28;8854;-79
2023/01/26 07:22:39;;;;;;;;;20.60;20.60;;;;;6.24;47.29;99703.41;5016400;28;8946;-79
2023/01/26 07:25:08;;;;;;;;;15.80;14.60;;;;;6.21;47.12;99697.28;5048290;28;8846;-80
2023/01/26 07:27:37;;;;;;;;;22.20;21.20;;;;;6.06;47.41;99695.28;5048137;28;8846;-78
2023/01/26 07:30:07;;;;;;;;;28.40;27.20;;;;;5.95;47.63;99696.75;5048380;28;8982;-79
2023/01/26 07:32:36;;;;;;;;;18.60;17.60;;;;;5.87;48.36;99688.81;5065319;28;8919;-80
2023/01/26 07:35:06;;;;;;;;;20.20;18.60;;;;;5.96;47.71;99694.22;5110275;27;8962;-82
2023/01/26 07:37:35;;;;;;;;;23.80;22.80;;;;;6.04;47.79;99694.38;5149334;27;8843;-80
2023/01/26 07:40:06;;;;;;;;;20.00;18.00;;;;;6.12;47.78;99685.03;5148880;27;8904;-79
2023/01/26 07:42:35;;;;;;;;;25.20;22.60;;;;;6.18;47.47;99692.06;5150338;27;8855;-79
2023/01/26 07:45:08;;;;;;;;;25.00;18.60;;;;;6.12;47.42;99687.63;5134571;27;8889;-80
2023/01/26 07:47:37;;;;;;;;;26.20;23.00;;;;;6.02;47.84;99689.16;5134690;27;9086;-81
2023/01/26 07:50:06;;;;;;;;;26.60;22.40;;;;;6.06;47.81;99692.69;5117203;27;9545;-82
2023/01/26 07:52:35;;;;;;;;;20.80;17.40;;;;;6.25;47.61;99696.50;5134222;27;8835;-82
2023/01/26 07:55:06;;;;;;;;;22.20;22.20;;;;;6.26;47.56;99680.16;5135157;27;8857;-81
2023/01/26 07:57:35;;;;;;;;;27.40;23.00;;;;;5.82;48.60;99680.97;5095494;27;8883;-77
2023/01/26 08:00:05;;;;;;;;;26.80;20.40;;;;;6.01;48.35;99671.00;5096185;27;8989;-80
2023/01/26 08:02:39;;;;;;;;;30.60;23.00;;;;;5.90;48.49;99675.94;5113707;27;8833;-80
2023/01/26 08:05:09;;;;;;;;;21.20;18.00;;;;;5.90;48.97;99669.88;5113524;27;8861;-79
2023/01/26 08:07:38;;;;;;;;;36.00;31.25;;;;;5.81;49.11;99681.81;5061876;27;8833;-78
2023/01/26 08:10:11;;;;;;;;;27.20;23.00;;;;;5.74;49.35;99682.50;5131516;27;8909;-79
2023/01/26 08:12:40;;;;;;;;;27.80;24.60;;;;;5.71;49.69;99677.28;5063423;27;8862;-81
2023/01/26 08:15:10;;;;;;;;;35.75;29.25;;;;;5.74;49.55;99679.06;5112970;27;8917;-79
2023/01/26 08:17:39;;;;;;;;;26.20;21.80;;;;;5.76;49.06;99679.97;5112816;27;8838;-80
2023/01/26 08:20:09;;;;;;;;;28.40;25.40;;;;;5.61;49.58;99676.22;5060843;27;8880;-80
2023/01/26 08:22:39;;;;;;;;;27.20;23.20;;;;;5.85;49.10;99677.56;5113173;27;8829;-79
2023/01/26 08:25:10;;;;;;;;;22.20;20.80;;;;;5.80;49.30;99676.59;5134221;27;8845;-80
2023/01/26 08:27:39;;;;;;;;;26.60;25.20;;;;;6.10;48.59;99668.59;5096440;27;8871;-81
2023/01/26 08:30:09;;;;;;;;;34.40;28.20;;;;;6.02;48.98;99672.75;5131306;27;8841;-80
2023/01/26 08:32:39;;;;;;;;;28.20;23.40;;;;;5.96;49.00;99672.66;5096505;27;8938;-79
2023/01/26 08:35:09;;;;;;;;;25.80;23.20;;;;;5.92;49.08;99668.22;5113643;27;8880;-80
2023/01/26 08:37:38;;;;;;;;;23.60;22.80;;;;;6.07;48.99;99662.47;5113448;27;8833;-79
2023/01/26 08:40:09;;;;;;;;;24.80;24.60;;;;;5.74;49.87;99664.41;5113061;27;8911;-79
2023/01/26 08:42:40;;;;;;;;;24.60;23.00;;;;;5.94;49.51;99667.41;5131876;27;8856;-81
2023/01/26 08:45:10;;;;;;;;;43.80;35.60;;;;;5.90;49.70;99664.72;5131453;27;8834;-79
2023/01/26 08:47:39;;;;;;;;;34.40;27.80;;;;;6.01;49.29;99677.06;5112360;27;8837;-80
2023/01/26 08:50:09;;;;;;;;;21.40;21.40;;;;;5.81;49.67;99668.88;5096519;27;8864;-79
2023/01/26 08:52:38;;;;;;;;;25.00;21.80;;;;;5.87;49.72;99670.72;5113613;27;8875;-78
2023/01/26 08:55:08;;;;;;;;;26.80;23.20;;;;;6.13;49.38;99673.84;5119983;27;8865;-79
2023/01/26 08:57:38;;;;;;;;;27.60;24.00;;;;;5.74;50.13;99666.97;5153283;27;8874;-81
2023/01/26 09:00:09;;;;;;;;;28.40;23.40;;;;;5.73;50.37;99670.44;5117500;27;8913;-79
2023/01/26 09:02:39;;;;;;;;;25.00;22.80;;;;;5.82;50.26;99672.31;5083860;27;8836;-80
2023/01/26 09:05:09;;;;;;;;;26.40;23.20;;;;;5.80;50.59;99664.56;5073831;27;8972;-80
2023/01/26 09:07:39;;;;;;;;;26.40;22.40;;;;;5.70;50.70;99675.53;5078782;27;8841;-83
2023/01/26 09:10:11;;;;;;;;;28.60;23.20;;;;;6.00;50.16;99662.38;5130682;27;8933;-83
2023/01/26 09:12:40;;;;;;;;;29.80;27.00;;;;;6.19;50.04;99673.97;5096214;27;8868;-79
2023/01/26 09:15:11;;;;;;;;;40.40;31.20;;;;;5.89;50.39;99673.34;5095644;27;8837;-83
2023/01/26 09:17:41;;;;;;;;;31.40;24.60;;;;;6.01;50.57;99671.91;5095900;27;8837;-79
2023/01/26 09:20:10;;;;;;;;;27.20;24.80;;;;;6.01;50.61;99668.41;5111950;27;8914;-78
2023/01/26 09:22:41;;;;;;;;;24.60;23.00;;;;;5.90;50.89;99669.88;5112242;27;8829;-80
2023/01/26 09:25:10;;;;;;;;;28.80;22.20;;;;;6.12;50.01;99669.50;5112248;27;8972;-81
2023/01/26 09:27:40;;;;;;;;;21.20;20.60;;;;;5.97;50.89;99664.94;5130625;27;8829;-79
2023/01/26 09:30:11;;;;;;;;;24.20;21.00;;;;;5.60;51.68;99661.53;5130442;27;8857;-78
2023/01/26 09:32:40;;;;;;;;;31.40;22.00;;;;;5.42;52.38;99653.38;5130494;27;8930;-79
2023/01/26 09:35:10;;;;;;;;;17.40;17.00;;;;;5.30;52.76;99663.47;5130706;27;9065;-81
2023/01/26 09:37:44;;;;;;;;;23.60;23.20;;;;;5.31;52.64;99647.94;5130251;27;9679;-79
2023/01/26 09:40:19;;;;;;;;;18.40;16.20;;;;;5.37;52.78;99653.28;5095011;27;9075;-80
2023/01/26 09:43:05;;;;;;;;;20.00;18.40;;;;;5.16;52.92;99652.78;5095154;27;8910;-80
2023/01/26 09:45:42;;;;;;;;;21.60;16.60;;;;;5.09;53.10;99641.44;5130165;27;8883;-79
2023/01/26 09:48:23;;;;;;;;;27.40;23.80;;;;;5.34;52.72;99637.69;5111833;27;8826;-80
2023/01/26 09:50:57;;;;;;;;;22.20;21.80;;;;;5.27;52.38;99633.22;5129922;27;8888;-80
2023/01/26 09:53:41;;;;;;;;;23.00;21.60;;;;;5.59;51.79;99636.50;5111509;27;8841;-78
2023/01/26 09:56:15;;;;;;;;;26.50;25.75;;;;;5.59;51.61;99622.69;5131174;27;8849;-81
2023/01/26 09:58:49;;;;;;;;;23.80;22.40;;;;;5.78;50.59;99622.22;5131840;27;8824;-80
2023/01/26 10:01:27;;;;;;;;;29.20;27.40;;;;;5.76;50.71;99621.31;5132175;27;10011;-79
2023/01/26 10:04:05;;;;;;;;;27.40;27.20;;;;;5.89;50.37;99618.97;5150454;27;8824;-80
2023/01/26 10:06:37;;;;;;;;;21.40;20.00;;;;;5.82;50.11;99610.22;5149349;27;8871;-79
2023/01/26 10:09:20;;;;;;;;;24.60;21.00;;;;;5.78;49.33;99609.28;5132032;27;8851;-79
2023/01/26 10:11:52;;;;;;;;;14.60;11.80;;;;;5.96;49.21;99601.03;5132001;27;8851;-80
2023/01/26 10:14:31;;;;;;;;;22.40;18.80;;;;;5.83;49.81;99605.06;5146809;27;8825;-79
2023/01/26 10:17:03;;;;;;;;;29.60;24.80;;;;;6.03;48.80;99589.06;5129750;27;8967;-80
2023/01/26 10:19:35;;;;;;;;;14.80;14.80;;;;;5.99;48.57;99592.44;5060527;27;8846;-79
2023/01/26 10:22:10;;;;;;;;;19.20;17.80;;;;;5.73;48.33;99587.63;5130548;27;8849;-79
2023/01/26 10:24:39;;;;;;;;;20.20;19.40;;;;;5.95;48.25;99591.53;5083208;28;8980;-81
2023/01/26 10:27:12;;;;;;;;;21.40;20.40;;;;;5.79;49.10;99581.72;5086020;28;8880;-80
2023/01/26 10:29:42;;;;;;;;;18.80;18.80;;;;;5.95;48.45;99578.59;5069117;28;8845;-79
2023/01/26 10:32:15;;;;;;;;;24.00;21.80;;;;;6.10;48.53;99571.94;5068872;28;8930;-79
2023/01/26 10:34:45;;;;;;;;;29.20;22.00;;;;;5.98;48.66;99564.84;5085493;28;8861;-81
2023/01/26 10:37:20;;;;;;;;;22.60;19.60;;;;;6.30;47.73;99557.63;5086068;28;8869;-80
2023/01/26 10:40:00;;;;;;;;;15.00;15.00;;;;;6.18;48.36;99547.94;5085903;28;8849;-81
2023/01/26 10:42:32;;;;;;;;;11.80;10.20;;;;;6.22;47.77;99554.91;5085869;28;8865;-81
2023/01/26 10:45:03;;;;;;;;;22.40;19.20;;;;;6.33;47.57;99549.94;5085812;28;8826;-79
2023/01/26 10:47:33;;;;;;;;;23.20;20.00;;;;;6.25;48.18;99541.16;5085204;28;8866;-80
2023/01/26 10:50:21;;;;;;;;;21.00;21.00;;;;;6.41;48.02;99547.47;5067533;28;9591;-81
2023/01/26 10:53:01;;;;;;;;;25.80;20.40;;;;;6.52;48.01;99535.56;5085618;28;8879;-80
2023/01/26 10:55:32;;;;;;;;;22.00;20.00;;;;;6.30;48.39;99526.56;5104349;27;8939;-81
2023/01/26 10:58:01;;;;;;;;;21.60;18.00;;;;;6.29;47.92;99524.81;5150151;27;9623;-80
2023/01/26 11:00:32;;;;;;;;;21.60;21.60;;;;;6.39;48.02;99524.13;5131031;27;8839;-79
2023/01/26 11:03:06;;;;;;;;;16.60;14.40;;;;;6.03;48.65;99511.41;5113492;27;8984;-81
2023/01/26 11:05:35;;;;;;;;;28.20;24.40;;;;;6.20;48.77;99510.00;5093516;27;8861;-80
2023/01/26 11:08:32;;;;;;;;;30.60;28.40;;;;;6.18;48.71;99514.28;5110059;27;8861;-80
2023/01/26 11:11:02;;;;;;;;;30.60;27.20;;;;;6.41;48.35;99511.19;5111593;27;8830;-79
2023/01/26 11:13:31;;;;;;;;;25.60;25.60;;;;;6.22;48.14;99485.00;5111546;27;8860;-79
2023/01/26 11:16:12;;;;;;;;;18.40;14.80;;;;;6.19;48.64;99490.13;5069796;28;8842;-81
2023/01/26 11:18:54;;;;;;;;;34.80;29.40;;;;;6.02;48.74;99484.66;5073649;28;8963;-80
2023/01/26 11:21:30;;;;;;;;;19.40;18.40;;;;;5.94;48.72;99483.66;5090310;28;9007;-81
2023/01/26 11:24:05;;;;;;;;;26.80;24.60;;;;;5.96;49.03;99479.41;5062750;28;8947;-80
2023/01/26 11:27:02;;;;;;;;;18.20;17.40;;;;;6.15;48.26;99483.16;5092503;28;8851;-81
2023/01/26 11:29:53;;;;;;;;;22.60;20.60;;;;;5.98;49.24;99487.19;5072234;28;8839;-80
2023/01/26 11:32:30;;;;;;;;;27.20;22.00;;;;;6.17;48.79;99478.00;5056236;28;8847;-81
2023/01/26 11:35:12;;;;;;;;;28.40;24.80;;;;;6.39;48.84;99479.19;5073454;28;8886;-82
2023/01/26 11:37:49;;;;;;;;;24.60;20.40;;;;;6.31;48.65;99478.22;5090180;28;8831;-80
2023/01/26 11:40:30;;;;;;;;;23.40;23.40;;;;;6.11;48.88;99465.84;5025445;28;9009;-80
2023/01/26 11:43:18;;;;;;;;;22.40;20.20;;;;;6.26;48.91;99467.81;5088818;28;8828;-80
2023/01/26 11:46:08;;;;;;;;;29.60;26.60;;;;;6.27;48.61;99460.91;5088993;28;8867;-79
2023/01/26 11:48:51;;;;;;;;;23.40;22.00;;;;;6.25;48.56;99460.88;5052045;28;9400;-79
2023/01/26 11:51:35;;;;;;;;;26.60;22.00;;;;;6.28;48.62;99460.94;5071959;28;8834;-80
2023/01/26 11:54:28;;;;;;;;;16.00;16.00;;;;;6.17;48.95;99458.16;5088454;28;8841;-80
2023/01/26 11:57:12;;;;;;;;;16.20;16.20;;;;;6.05;49.15;99442.44;5088771;28;8850;-81
2023/01/26 11:59:47;;;;;;;;;25.60;22.20;;;;;5.94;49.70;99452.59;5038355;28;8826;-80
2023/01/26 12:02:28;;;;;;;;;25.20;20.60;;;;;6.24;48.90;99443.63;5088479;28;8876;-81
2023/01/26 12:05:02;;;;;;;;;26.60;21.00;;;;;6.15;49.23;99438.28;5088424;28;8922;-80
2023/01/26 12:07:50;;;;;;;;;15.00;15.00;;;;;6.26;49.23;99436.72;5120816;27;8858;-78
2023/01/26 12:10:27;;;;;;;;;15.00;12.60;;;;;6.35;49.23;99438.56;5100245;27;8845;-80
2023/01/26 12:13:05;;;;;;;;;17.40;16.80;;;;;6.38;49.18;99431.72;5113488;27;8837;-80
2023/01/26 12:15:38;;;;;;;;;19.00;18.00;;;;;6.33;49.77;99435.09;5113360;27;8846;-79
2023/01/26 12:18:19;;;;;;;;;25.40;21.60;;;;;6.42;50.62;99427.47;5113739;27;8871;-80
2023/01/26 12:20:54;;;;;;;;;20.80;18.80;;;;;6.27;51.35;99425.50;5131505;27;8849;-80
2023/01/26 12:23:32;;;;;;;;;19.80;16.80;;;;;5.96;52.54;99427.63;5113322;27;8868;-79
2023/01/26 12:26:07;;;;;;;;;22.60;21.80;;;;;6.00;53.17;99418.22;5096382;27;9590;-79
2023/01/26 12:28:45;;;;;;;;;26.20;23.60;;;;;6.11;53.47;99418.38;5131143;27;8833;-80
2023/01/26 12:31:22;;;;;;;;;25.20;23.20;;;;;6.04;53.65;99410.50;5131262;27;8837;-80
2023/01/26 12:33:54;;;;;;;;;31.80;24.00;;;;;6.20;53.31;99418.50;5096364;27;8849;-81
2023/01/26 12:36:35;;;;;;;;;17.00;16.00;;;;;5.78;54.15;99412.63;5113162;27;8868;-83
2023/01/26 12:39:12;;;;;;;;;27.00;23.80;;;;;5.91;54.27;99415.44;5086424;28;8862;-79
2023/01/26 12:42:00;;;;;;;;;25.40;22.80;;;;;5.60;54.74;99407.19;5055788;28;10161;-81
2023/01/26 12:44:38;;;;;;;;;21.00;18.80;;;;;5.71;54.80;99404.75;5070703;28;8858;-81
2023/01/26 12:47:17;;;;;;;;;18.40;18.00;;;;;5.66;55.39;99407.28;5066537;28;8825;-81
2023/01/26 12:49:55;;;;;;;;;18.60;18.60;;;;;5.59;55.27;99408.88;5076434;28;9638;-81